Station info - map view · info · telemetry · weather · raw · status · beacons · messages · bulletins · browse · moving · my account
Callsign, ship name or locator: Clear       
It is possible to search using wildcards (*?) after a prefix. Example: OH*
APRS station K0WWS - show graphs
Map loading...
Mic-E message: In service
Last status: Voice on 146.940
Location: 37°40.71' N 97°19.65' W - locator EM17IQ02QU - show map - static map
1.1 miles Southeast bearing 150° from Wichita, Sedgwick County, Kansas, United States [?]
8.0 miles North bearing 10° from Haysville, Sedgwick County, Kansas, United States
42.1 miles Southeast bearing 129° from Hutchinson, Reno County, Kansas, United States
Last position: 2020-09-28 11:07:50 EDT (23h27m ago)
2020-09-28 10:07:50 CDT local time at Wichita, United States [?]
Altitude: 1385 ft
Course: 91°
Speed: 55 MPH
Last path: K0WWS>S7TP7Q via N0KTA,WIDE1*,WIDE2-2,qAR,N0KTA-2 (good)
Positions stored: 173941
Stations near current position of K0WWS - show more
callsign distance last heard - EDT      callsign distance last heard - EDT
N5UQD0.9 miles 120°2020-09-29 09:05:55 K0SCR1.4 miles 336°2020-09-29 07:49:03
W0BBT-91.5 miles 168°2020-09-16 21:36:20 KK0O B2.1 miles 68°2020-09-29 10:26:46
KK0O-B2.1 miles 68°2020-09-29 10:26:56 KC0FUE-62.4 miles 261°2020-09-02 07:38:48
K0PER B3.0 miles 231°2020-09-29 10:31:14 K0PER-B3.0 miles 231°2020-09-29 10:31:24
AE0EP-93.4 miles 44°2020-09-29 09:35:53 WB0YBW4.3 miles 339°2020-09-28 22:27:13
AJ0V4.5 miles 347°2020-09-29 10:30:15 AJ0V2-N4.5 miles 347°2020-09-29 10:17:58
KE0LJG-N4.8 miles 205°2020-09-29 10:23:17 KD0UGN5.3 miles 91°2020-09-26 16:41:44
K0ZIM-95.4 miles 355°2020-09-23 12:00:18 KS0TOR-95.8 miles 291°2020-09-29 08:35:11
N0ITL-15.9 miles 36°2020-09-26 04:13:53 KC0FGP-95.9 miles 70°2020-09-24 09:43:07
N0ITL-46.2 miles 40°2020-09-15 00:45:45 K0PER-96.2 miles 155°2020-09-28 18:46:58
Stations which heard K0WWS directly on radio –
callsign pkts first heard - EDT last heard longest (tx => rx) longest at - EDT
N0KTA-2 8 2020-09-14 19:30:16 2020-09-15 13:37:10 EM17IJ > EM17JL 8.3 miles 34° 2020-09-14 19:30:16
N0KTA 20 2020-09-14 08:25:26 2020-09-28 11:07:50 EM17HG > EM17JN 20.8 miles 23° 2020-09-14 19:23:28
KC0U-1 6 2020-09-05 12:29:59 2020-09-06 00:20:52 EM18SE > EM18WC 19.6 miles 108° 2020-09-06 00:20:52
STJOHN 16 2020-09-05 21:54:41 2020-09-05 22:28:44 EM29LK > EM29NG 13.2 miles 138° 2020-09-05 21:54:41
STLPLZ 1 2020-09-05 18:46:17 2020-09-05 18:46:17 EM29PA > EM29QB 5.2 miles 81° 2020-09-05 18:46:17
PONCA 47 2020-09-14 08:39:07 2020-09-14 19:04:54 EM16MG > EM16JQ 31.1 miles 340° 2020-09-14 09:35:06
SMMC 42 2020-09-05 13:55:06 2020-09-05 18:45:39 EM28OV > EM28PX 7.9 miles 37° 2020-09-05 13:55:06
CMHS 6 2020-09-05 14:18:34 2020-09-05 16:56:15 EM28PX > EM28QW 5.3 miles 145° 2020-09-05 14:18:34
STLSMI 1 2020-09-05 22:04:29 2020-09-05 22:04:29 EM29MH > EM29RJ 20.1 miles 81° 2020-09-05 22:04:29
MATFLD 34 2020-09-05 12:18:19 2020-09-06 00:32:24 EM18WL > EM18SD 28.6 miles 212° 2020-09-06 00:00:31
BASHOR 7 2020-09-05 22:35:52 2020-09-05 22:45:55 EM29NC > EM29MC 3.7 miles 264° 2020-09-05 22:39:23
KEETON 18 2020-09-14 10:21:31 2020-09-14 17:15:51 EM16WD > EM26DH 26.0 miles 59° 2020-09-14 10:21:31
STLWTR 11 2020-09-14 09:29:02 2020-09-14 09:52:18 EM16QF > EM16JC 30.6 miles 255° 2020-09-14 09:52:18
AUBURN 14 2020-09-05 23:18:32 2020-09-06 06:40:51 EM28AR > EM28CX 19.3 miles 25° 2020-09-05 23:45:20
WX0U-2 7 2020-09-05 12:41:20 2020-09-06 00:08:28 EM18UI > EM18VJ 3.6 miles 52° 2020-09-05 12:41:20
OMC 10 2020-09-05 13:44:17 2020-09-05 13:53:08 EM28MS > EM28OU 8.7 miles 48° 2020-09-05 13:44:17
MOUNDS 19 2020-09-14 10:11:20 2020-09-14 17:15:46 EM16UE > EM15WU 24.4 miles 161° 2020-09-14 10:24:53
STULSA 18 2020-09-14 12:35:53 2020-09-14 17:04:45 EM26AC > EM26BB 4.1 miles 149° 2020-09-14 12:35:53
TNGNXI 22 2020-09-05 21:56:51 2020-09-05 23:13:31 EM29LJ > EM29KC 19.9 miles 190° 2020-09-05 21:56:51
MILLER 13 2020-09-05 23:40:14 2020-09-05 23:57:30 EM28BT > EM28AP 10.6 miles 204° 2020-09-05 23:40:14
MENORA 4 2020-09-05 14:08:34 2020-09-05 16:49:30 EM28PX > EM28QV 6.5 miles 150° 2020-09-05 14:08:34
KC0QLU-2 51 2020-09-05 19:25:02 2020-09-05 21:53:42 EM29KK > EM29OT 29.3 miles 30° 2020-09-05 21:53:42
TRUHH 1 2020-09-05 18:47:06 2020-09-05 18:47:06 EM29PA > EM29RC 6.1 miles 60° 2020-09-05 18:47:06
KS0SA-8 1 2020-09-05 13:54:07 2020-09-05 13:54:07 EM28OV > EM28OV 1.5 miles 253° 2020-09-05 13:54:07

Only position packets which were originated by the station are shown here. The range statistics show some extra long hops, because some digipeaters do not correctly add themselves to the digipeater path. Please check the raw packets.
About this site
This page shows real-time information collected from the Automatic Position Reporting System Internet network (APRS-IS). APRS is used by amateur (ham) radio operators to transmit real-time position information, weather data, telemetry and messages over the radio. A vehicle equipped with a GPS receiver, a VHF transmitter or HF transceiver and a small computer device called a tracker transmits it's location, speed and course in a small data packet, which is then received by a nearby iGate receiving site which forwards the packet on the Internet. Systems connected to the Internet can send information on the APRS-IS without a radio transmitter, or collect and display information transmitted anywhere in the world.
User guide · FAQ · Blog · Discussion group · Linking to aprs.fi · AIS sites · Service status · Database statistics · Advertising on aprs.fi · Technical details · API · Change log · Planned changes · Credits and thanks · Terms Of Service · iPhone/iPad APRS